English, West Virginia
Current Conditions -  °F | °C
As of 10:15 PM on Monday 20 Oct 2014 (Local Time) from KJFZ Reporting Station
Overcast Overcast  
Wind Chill: 57°   Ceiling: 5000
Heat Index: 57°   Visibility: 10mi
Dew Point: 48°   Wind: 10mph
Humidity: 72%   Direction: 240°WSW
Pressure: 30"   Gusts: NA
Location:  37.34°N, 81.72°W
Report Text: KJFZ 210215Z AUTO 24009KT 10SM BKN050 BKN080 OVC095 14/09 A3000 RMK AO2 T01390090
Loading
Personal Weather Stations






























Interactive Weather Map
Tropical Storm Tracking
New forecast layout! Learn more

10-Day Weather Forecast

Advertisements
Track Severe Weather on mobile